sensor_id;sensor_type;location;lat;lon;timestamp;P1;durP1;ratioP1;P2;durP2;ratioP2
20042;SDS011;10182;52.896;6.496;2022-08-07T00:02:34;7.70;;;6.00;;
20042;SDS011;10182;52.896;6.496;2022-08-07T00:07:37;7.60;;;6.07;;
20042;SDS011;10182;52.896;6.496;2022-08-07T00:12:38;9.60;;;6.60;;
20042;SDS011;10182;52.896;6.496;2022-08-07T00:17:40;8.83;;;7.40;;
20042;SDS011;10182;52.896;6.496;2022-08-07T00:22:43;7.33;;;6.53;;
20042;SDS011;10182;52.896;6.496;2022-08-07T00:27:45;9.47;;;7.10;;
20042;SDS011;10182;52.896;6.496;2022-08-07T00:32:47;7.77;;;6.97;;
20042;SDS011;10182;52.896;6.496;2022-08-07T00:37:50;10.37;;;6.90;;
20042;SDS011;10182;52.896;6.496;2022-08-07T00:42:52;7.50;;;6.70;;
20042;SDS011;10182;52.896;6.496;2022-08-07T00:47:54;8.70;;;7.80;;
20042;SDS011;10182;52.896;6.496;2022-08-07T00:52:57;13.30;;;8.27;;
20042;SDS011;10182;52.896;6.496;2022-08-07T00:57:58;9.60;;;7.80;;
20042;SDS011;10182;52.896;6.496;2022-08-07T01:03:01;10.40;;;8.80;;
20042;SDS011;10182;52.896;6.496;2022-08-07T01:08:04;9.13;;;7.60;;
20042;SDS011;10182;52.896;6.496;2022-08-07T01:13:06;8.73;;;7.80;;
20042;SDS011;10182;52.896;6.496;2022-08-07T01:18:08;8.03;;;6.60;;
20042;SDS011;10182;52.896;6.496;2022-08-07T01:23:12;7.20;;;6.50;;
20042;SDS011;10182;52.896;6.496;2022-08-07T01:28:15;7.50;;;6.30;;
20042;SDS011;10182;52.896;6.496;2022-08-07T01:33:17;12.17;;;7.60;;
20042;SDS011;10182;52.896;6.496;2022-08-07T01:38:20;10.47;;;8.60;;
20042;SDS011;10182;52.896;6.496;2022-08-07T01:43:23;11.27;;;8.73;;
20042;SDS011;10182;52.896;6.496;2022-08-07T01:48:25;9.83;;;7.90;;
20042;SDS011;10182;52.896;6.496;2022-08-07T01:53:29;12.00;;;7.80;;
20042;SDS011;10182;52.896;6.496;2022-08-07T01:58:37;9.67;;;8.13;;
20042;SDS011;10182;52.896;6.496;2022-08-07T02:03:44;11.77;;;8.93;;
20042;SDS011;10182;52.896;6.496;2022-08-07T02:08:51;12.20;;;8.63;;
20042;SDS011;10182;52.896;6.496;2022-08-07T02:13:54;8.73;;;7.70;;
20042;SDS011;10182;52.896;6.496;2022-08-07T02:18:59;10.23;;;8.43;;
20042;SDS011;10182;52.896;6.496;2022-08-07T02:24:04;8.17;;;7.37;;
20042;SDS011;10182;52.896;6.496;2022-08-07T02:29:07;8.47;;;7.27;;
20042;SDS011;10182;52.896;6.496;2022-08-07T02:34:10;9.80;;;7.87;;
20042;SDS011;10182;52.896;6.496;2022-08-07T02:39:14;7.67;;;6.87;;
20042;SDS011;10182;52.896;6.496;2022-08-07T02:44:17;7.57;;;6.80;;
20042;SDS011;10182;52.896;6.496;2022-08-07T02:49:21;9.33;;;6.90;;
20042;SDS011;10182;52.896;6.496;2022-08-07T02:54:24;8.77;;;7.47;;
20042;SDS011;10182;52.896;6.496;2022-08-07T02:59:28;11.53;;;8.83;;
20042;SDS011;10182;52.896;6.496;2022-08-07T03:04:31;9.47;;;8.47;;
20042;SDS011;10182;52.896;6.496;2022-08-07T03:09:35;8.87;;;7.60;;
20042;SDS011;10182;52.896;6.496;2022-08-07T03:14:37;10.17;;;7.23;;
20042;SDS011;10182;52.896;6.496;2022-08-07T03:19:39;9.97;;;7.43;;
20042;SDS011;10182;52.896;6.496;2022-08-07T03:24:43;9.03;;;7.50;;
20042;SDS011;10182;52.896;6.496;2022-08-07T03:29:45;6.47;;;5.73;;
20042;SDS011;10182;52.896;6.496;2022-08-07T03:34:50;6.97;;;5.87;;
20042;SDS011;10182;52.896;6.496;2022-08-07T03:39:57;6.83;;;5.87;;
20042;SDS011;10182;52.896;6.496;2022-08-07T03:44:59;10.57;;;7.97;;
20042;SDS011;10182;52.896;6.496;2022-08-07T03:50:02;9.67;;;7.83;;
20042;SDS011;10182;52.896;6.496;2022-08-07T03:55:05;10.23;;;8.07;;
20042;SDS011;10182;52.896;6.496;2022-08-07T04:00:08;10.53;;;8.07;;
20042;SDS011;10182;52.896;6.496;2022-08-07T04:05:11;8.90;;;8.00;;
20042;SDS011;10182;52.896;6.496;2022-08-07T04:10:15;9.47;;;7.60;;
20042;SDS011;10182;52.896;6.496;2022-08-07T04:15:16;10.47;;;7.80;;
20042;SDS011;10182;52.896;6.496;2022-08-07T04:20:20;13.47;;;8.50;;
20042;SDS011;10182;52.896;6.496;2022-08-07T04:25:23;8.17;;;7.37;;
20042;SDS011;10182;52.896;6.496;2022-08-07T04:30:26;9.53;;;8.63;;
20042;SDS011;10182;52.896;6.496;2022-08-07T04:35:28;8.70;;;6.23;;
20042;SDS011;10182;52.896;6.496;2022-08-07T04:40:31;10.50;;;7.93;;
20042;SDS011;10182;52.896;6.496;2022-08-07T04:45:36;9.60;;;6.73;;
20042;SDS011;10182;52.896;6.496;2022-08-07T04:50:43;9.67;;;7.63;;
20042;SDS011;10182;52.896;6.496;2022-08-07T04:55:56;8.00;;;7.20;;
20042;SDS011;10182;52.896;6.496;2022-08-07T05:01:02;9.60;;;7.90;;
20042;SDS011;10182;52.896;6.496;2022-08-07T05:06:13;11.47;;;8.67;;
20042;SDS011;10182;52.896;6.496;2022-08-07T05:11:23;15.07;;;9.17;;
20042;SDS011;10182;52.896;6.496;2022-08-07T05:16:28;13.53;;;8.67;;
20042;SDS011;10182;52.896;6.496;2022-08-07T05:21:33;10.37;;;7.90;;
20042;SDS011;10182;52.896;6.496;2022-08-07T05:26:39;11.20;;;7.97;;
20042;SDS011;10182;52.896;6.496;2022-08-07T05:31:42;10.87;;;8.40;;
20042;SDS011;10182;52.896;6.496;2022-08-07T05:36:45;11.20;;;8.50;;
20042;SDS011;10182;52.896;6.496;2022-08-07T05:41:51;14.60;;;10.00;;
20042;SDS011;10182;52.896;6.496;2022-08-07T05:46:53;15.13;;;10.27;;
20042;SDS011;10182;52.896;6.496;2022-08-07T05:51:55;13.90;;;9.63;;
20042;SDS011;10182;52.896;6.496;2022-08-07T05:56:58;17.17;;;11.13;;
20042;SDS011;10182;52.896;6.496;2022-08-07T06:02:02;15.47;;;10.20;;
20042;SDS011;10182;52.896;6.496;2022-08-07T06:07:07;18.53;;;11.07;;
20042;SDS011;10182;52.896;6.496;2022-08-07T06:12:10;12.77;;;11.43;;
20042;SDS011;10182;52.896;6.496;2022-08-07T06:17:12;19.77;;;13.27;;
20042;SDS011;10182;52.896;6.496;2022-08-07T06:22:15;13.03;;;11.20;;
20042;SDS011;10182;52.896;6.496;2022-08-07T06:27:22;13.60;;;11.67;;
20042;SDS011;10182;52.896;6.496;2022-08-07T06:32:24;13.97;;;12.47;;
20042;SDS011;10182;52.896;6.496;2022-08-07T06:37:26;13.27;;;11.67;;
20042;SDS011;10182;52.896;6.496;2022-08-07T06:42:33;11.83;;;10.57;;
20042;SDS011;10182;52.896;6.496;2022-08-07T06:47:37;14.30;;;12.10;;
20042;SDS011;10182;52.896;6.496;2022-08-07T06:52:40;11.73;;;9.93;;
20042;SDS011;10182;52.896;6.496;2022-08-07T06:57:45;15.07;;;10.20;;
20042;SDS011;10182;52.896;6.496;2022-08-07T07:02:48;11.87;;;9.60;;
20042;SDS011;10182;52.896;6.496;2022-08-07T07:07:51;10.10;;;9.00;;
20042;SDS011;10182;52.896;6.496;2022-08-07T07:12:56;8.40;;;7.50;;
20042;SDS011;10182;52.896;6.496;2022-08-07T07:18:03;8.63;;;6.87;;
20042;SDS011;10182;52.896;6.496;2022-08-07T07:23:10;9.50;;;7.43;;
20042;SDS011;10182;52.896;6.496;2022-08-07T07:28:15;4.53;;;4.13;;
20042;SDS011;10182;52.896;6.496;2022-08-07T07:33:20;6.13;;;5.63;;
20042;SDS011;10182;52.896;6.496;2022-08-07T07:38:23;7.33;;;4.77;;
20042;SDS011;10182;52.896;6.496;2022-08-07T07:43:27;2.87;;;1.57;;
20042;SDS011;10182;52.896;6.496;2022-08-07T07:48:30;3.47;;;3.17;;
20042;SDS011;10182;52.896;6.496;2022-08-07T07:53:35;2.50;;;2.30;;
20042;SDS011;10182;52.896;6.496;2022-08-07T07:58:41;3.10;;;2.80;;
20042;SDS011;10182;52.896;6.496;2022-08-07T08:03:44;3.10;;;2.70;;
20042;SDS011;10182;52.896;6.496;2022-08-07T08:08:47;5.43;;;2.33;;
20042;SDS011;10182;52.896;6.496;2022-08-07T08:13:51;5.37;;;4.27;;
20042;SDS011;10182;52.896;6.496;2022-08-07T08:18:53;5.30;;;4.30;;
20042;SDS011;10182;52.896;6.496;2022-08-07T08:23:56;3.80;;;3.50;;
20042;SDS011;10182;52.896;6.496;2022-08-07T08:29:23;3.60;;;3.20;;
20042;SDS011;10182;52.896;6.496;2022-08-07T08:34:26;4.40;;;3.00;;
20042;SDS011;10182;52.896;6.496;2022-08-07T08:39:30;4.23;;;3.20;;
20042;SDS011;10182;52.896;6.496;2022-08-07T08:44:35;4.87;;;3.03;;
20042;SDS011;10182;52.896;6.496;2022-08-07T08:49:43;4.00;;;2.93;;
20042;SDS011;10182;52.896;6.496;2022-08-07T08:54:51;3.07;;;2.27;;
20042;SDS011;10182;52.896;6.496;2022-08-07T09:00:01;5.13;;;2.70;;
20042;SDS011;10182;52.896;6.496;2022-08-07T09:05:11;4.07;;;2.90;;
20042;SDS011;10182;52.896;6.496;2022-08-07T09:10:24;2.10;;;1.90;;
20042;SDS011;10182;52.896;6.496;2022-08-07T09:15:37;3.23;;;2.03;;
20042;SDS011;10182;52.896;6.496;2022-08-07T09:20:47;3.00;;;1.80;;
20042;SDS011;10182;52.896;6.496;2022-08-07T09:26:05;2.50;;;1.90;;
20042;SDS011;10182;52.896;6.496;2022-08-07T09:31:19;3.20;;;2.50;;
20042;SDS011;10182;52.896;6.496;2022-08-07T09:36:33;3.70;;;2.47;;
20042;SDS011;10182;52.896;6.496;2022-08-07T09:41:41;2.73;;;2.43;;
20042;SDS011;10182;52.896;6.496;2022-08-07T09:46:57;3.30;;;2.20;;
20042;SDS011;10182;52.896;6.496;2022-08-07T09:52:15;1.77;;;1.50;;
20042;SDS011;10182;52.896;6.496;2022-08-07T10:03:21;1.93;;;1.83;;
20042;SDS011;10182;52.896;6.496;2022-08-07T10:08:43;2.90;;;2.03;;
20042;SDS011;10182;52.896;6.496;2022-08-07T10:14:03;3.53;;;1.70;;
20042;SDS011;10182;52.896;6.496;2022-08-07T10:19:23;2.33;;;1.83;;
20042;SDS011;10182;52.896;6.496;2022-08-07T10:24:50;4.60;;;2.07;;
20042;SDS011;10182;52.896;6.496;2022-08-07T10:30:04;2.33;;;1.63;;
20042;SDS011;10182;52.896;6.496;2022-08-07T10:35:11;2.07;;;1.63;;
20042;SDS011;10182;52.896;6.496;2022-08-07T10:40:24;4.07;;;2.07;;
20042;SDS011;10182;52.896;6.496;2022-08-07T10:45:30;2.20;;;1.43;;
20042;SDS011;10182;52.896;6.496;2022-08-07T10:50:39;2.37;;;2.00;;
20042;SDS011;10182;52.896;6.496;2022-08-07T10:55:46;2.03;;;1.80;;
20042;SDS011;10182;52.896;6.496;2022-08-07T11:00:54;2.10;;;1.40;;
20042;SDS011;10182;52.896;6.496;2022-08-07T11:06:07;2.00;;;1.60;;
20042;SDS011;10182;52.896;6.496;2022-08-07T11:11:19;2.37;;;1.80;;
20042;SDS011;10182;52.896;6.496;2022-08-07T11:16:26;1.83;;;1.73;;
20042;SDS011;10182;52.896;6.496;2022-08-07T11:21:36;1.80;;;1.60;;
20042;SDS011;10182;52.896;6.496;2022-08-07T11:26:43;2.53;;;1.90;;
20042;SDS011;10182;52.896;6.496;2022-08-07T11:31:54;2.50;;;2.07;;
20042;SDS011;10182;52.896;6.496;2022-08-07T11:37:04;3.23;;;1.90;;
20042;SDS011;10182;52.896;6.496;2022-08-07T11:42:12;4.70;;;2.07;;
20042;SDS011;10182;52.896;6.496;2022-08-07T11:47:21;1.70;;;1.60;;
20042;SDS011;10182;52.896;6.496;2022-08-07T11:52:44;2.07;;;1.80;;
20042;SDS011;10182;52.896;6.496;2022-08-07T11:57:59;3.10;;;1.63;;
20042;SDS011;10182;52.896;6.496;2022-08-07T12:03:29;2.70;;;1.70;;
20042;SDS011;10182;52.896;6.496;2022-08-07T12:08:46;3.10;;;1.67;;
20042;SDS011;10182;52.896;6.496;2022-08-07T12:13:52;1.73;;;1.63;;
20042;SDS011;10182;52.896;6.496;2022-08-07T12:19:00;2.00;;;1.37;;
20042;SDS011;10182;52.896;6.496;2022-08-07T12:24:15;4.43;;;1.67;;
20042;SDS011;10182;52.896;6.496;2022-08-07T12:29:22;2.33;;;1.60;;
20042;SDS011;10182;52.896;6.496;2022-08-07T12:34:29;3.60;;;1.37;;
20042;SDS011;10182;52.896;6.496;2022-08-07T12:39:34;1.53;;;1.40;;
20042;SDS011;10182;52.896;6.496;2022-08-07T12:44:40;1.47;;;1.37;;
20042;SDS011;10182;52.896;6.496;2022-08-07T12:49:47;1.57;;;1.47;;
20042;SDS011;10182;52.896;6.496;2022-08-07T12:54:57;1.60;;;1.50;;
20042;SDS011;10182;52.896;6.496;2022-08-07T13:00:04;2.00;;;1.80;;
20042;SDS011;10182;52.896;6.496;2022-08-07T13:05:12;1.70;;;1.60;;
20042;SDS011;10182;52.896;6.496;2022-08-07T13:10:31;1.00;;;1.00;;
20042;SDS011;10182;52.896;6.496;2022-08-07T13:15:42;1.70;;;1.60;;
20042;SDS011;10182;52.896;6.496;2022-08-07T13:20:55;1.57;;;1.40;;
20042;SDS011;10182;52.896;6.496;2022-08-07T13:26:02;2.90;;;1.70;;
20042;SDS011;10182;52.896;6.496;2022-08-07T13:31:12;2.13;;;1.60;;
20042;SDS011;10182;52.896;6.496;2022-08-07T13:36:20;2.00;;;1.80;;
20042;SDS011;10182;52.896;6.496;2022-08-07T13:41:29;4.20;;;1.90;;
20042;SDS011;10182;52.896;6.496;2022-08-07T13:46:40;2.17;;;1.97;;
20042;SDS011;10182;52.896;6.496;2022-08-07T13:51:45;2.20;;;1.90;;
20042;SDS011;10182;52.896;6.496;2022-08-07T13:56:51;2.33;;;1.77;;
20042;SDS011;10182;52.896;6.496;2022-08-07T14:01:58;3.67;;;2.33;;
20042;SDS011;10182;52.896;6.496;2022-08-07T14:07:06;2.10;;;1.90;;
20042;SDS011;10182;52.896;6.496;2022-08-07T14:12:12;2.33;;;2.10;;
20042;SDS011;10182;52.896;6.496;2022-08-07T14:17:22;2.07;;;1.87;;
20042;SDS011;10182;52.896;6.496;2022-08-07T14:22:27;2.57;;;2.20;;
20042;SDS011;10182;52.896;6.496;2022-08-07T14:27:35;2.93;;;2.47;;
20042;SDS011;10182;52.896;6.496;2022-08-07T14:32:41;2.40;;;2.20;;
20042;SDS011;10182;52.896;6.496;2022-08-07T14:37:46;3.50;;;2.60;;
20042;SDS011;10182;52.896;6.496;2022-08-07T14:42:55;2.93;;;2.40;;
20042;SDS011;10182;52.896;6.496;2022-08-07T14:47:59;2.80;;;2.50;;
20042;SDS011;10182;52.896;6.496;2022-08-07T14:53:02;2.60;;;2.40;;
20042;SDS011;10182;52.896;6.496;2022-08-07T14:58:08;3.37;;;2.40;;
20042;SDS011;10182;52.896;6.496;2022-08-07T15:03:13;3.27;;;2.50;;
20042;SDS011;10182;52.896;6.496;2022-08-07T15:08:21;4.87;;;2.33;;
20042;SDS011;10182;52.896;6.496;2022-08-07T15:13:26;3.13;;;2.00;;
20042;SDS011;10182;52.896;6.496;2022-08-07T15:18:30;4.20;;;2.30;;
20042;SDS011;10182;52.896;6.496;2022-08-07T15:23:36;3.63;;;2.20;;
20042;SDS011;10182;52.896;6.496;2022-08-07T15:28:40;2.97;;;2.07;;
20042;SDS011;10182;52.896;6.496;2022-08-07T15:33:44;4.50;;;1.90;;
20042;SDS011;10182;52.896;6.496;2022-08-07T15:38:46;1.77;;;1.40;;
20042;SDS011;10182;52.896;6.496;2022-08-07T15:43:58;1.50;;;1.40;;
20042;SDS011;10182;52.896;6.496;2022-08-07T15:49:01;1.73;;;1.60;;
20042;SDS011;10182;52.896;6.496;2022-08-07T15:54:06;1.83;;;1.50;;
20042;SDS011;10182;52.896;6.496;2022-08-07T15:59:12;2.30;;;1.50;;
20042;SDS011;10182;52.896;6.496;2022-08-07T16:04:16;2.90;;;1.20;;
20042;SDS011;10182;52.896;6.496;2022-08-07T16:09:20;1.83;;;1.20;;
20042;SDS011;10182;52.896;6.496;2022-08-07T16:14:31;1.33;;;1.10;;
20042;SDS011;10182;52.896;6.496;2022-08-07T16:19:51;3.50;;;1.57;;
20042;SDS011;10182;52.896;6.496;2022-08-07T16:25:05;5.47;;;1.70;;
20042;SDS011;10182;52.896;6.496;2022-08-07T16:30:27;2.20;;;2.00;;
20042;SDS011;10182;52.896;6.496;2022-08-07T16:35:35;4.73;;;2.10;;
20042;SDS011;10182;52.896;6.496;2022-08-07T16:40:43;4.93;;;2.33;;
20042;SDS011;10182;52.896;6.496;2022-08-07T16:51:29;2.37;;;1.77;;
20042;SDS011;10182;52.896;6.496;2022-08-07T16:56:43;2.73;;;2.30;;
20042;SDS011;10182;52.896;6.496;2022-08-07T17:01:58;4.60;;;2.20;;
20042;SDS011;10182;52.896;6.496;2022-08-07T17:07:07;3.50;;;2.53;;
20042;SDS011;10182;52.896;6.496;2022-08-07T17:12:13;2.83;;;1.90;;
20042;SDS011;10182;52.896;6.496;2022-08-07T17:17:21;3.40;;;2.20;;
20042;SDS011;10182;52.896;6.496;2022-08-07T17:22:34;3.17;;;2.37;;
20042;SDS011;10182;52.896;6.496;2022-08-07T17:27:44;35.77;;;4.60;;
20042;SDS011;10182;52.896;6.496;2022-08-07T17:32:59;6.73;;;2.60;;
20042;SDS011;10182;52.896;6.496;2022-08-07T17:38:10;4.30;;;2.57;;
20042;SDS011;10182;52.896;6.496;2022-08-07T17:43:16;5.03;;;2.97;;
20042;SDS011;10182;52.896;6.496;2022-08-07T17:48:26;3.87;;;3.10;;
20042;SDS011;10182;52.896;6.496;2022-08-07T17:53:34;9.03;;;3.20;;
20042;SDS011;10182;52.896;6.496;2022-08-07T17:58:49;3.50;;;3.20;;
20042;SDS011;10182;52.896;6.496;2022-08-07T18:04:07;5.70;;;3.30;;
20042;SDS011;10182;52.896;6.496;2022-08-07T18:09:15;5.97;;;3.67;;
20042;SDS011;10182;52.896;6.496;2022-08-07T18:14:22;5.13;;;3.83;;
20042;SDS011;10182;52.896;6.496;2022-08-07T18:19:35;4.20;;;3.47;;
20042;SDS011;10182;52.896;6.496;2022-08-07T18:24:44;6.63;;;4.23;;
20042;SDS011;10182;52.896;6.496;2022-08-07T18:35:13;7.50;;;4.50;;
20042;SDS011;10182;52.896;6.496;2022-08-07T18:40:23;7.07;;;3.80;;
20042;SDS011;10182;52.896;6.496;2022-08-07T18:45:32;6.43;;;3.97;;
20042;SDS011;10182;52.896;6.496;2022-08-07T18:50:56;5.07;;;3.60;;
20042;SDS011;10182;52.896;6.496;2022-08-07T18:56:06;5.60;;;4.00;;
20042;SDS011;10182;52.896;6.496;2022-08-07T19:01:18;5.43;;;3.80;;
20042;SDS011;10182;52.896;6.496;2022-08-07T19:06:29;7.43;;;4.40;;
20042;SDS011;10182;52.896;6.496;2022-08-07T19:11:56;5.03;;;3.90;;
20042;SDS011;10182;52.896;6.496;2022-08-07T19:17:08;6.73;;;3.67;;
20042;SDS011;10182;52.896;6.496;2022-08-07T19:22:19;7.00;;;4.23;;
20042;SDS011;10182;52.896;6.496;2022-08-07T19:27:23;5.83;;;4.10;;
20042;SDS011;10182;52.896;6.496;2022-08-07T19:32:30;5.57;;;4.30;;
20042;SDS011;10182;52.896;6.496;2022-08-07T19:37:35;7.73;;;4.03;;
20042;SDS011;10182;52.896;6.496;2022-08-07T19:42:39;8.07;;;4.63;;
20042;SDS011;10182;52.896;6.496;2022-08-07T19:47:42;6.40;;;4.40;;
20042;SDS011;10182;52.896;6.496;2022-08-07T19:52:50;9.03;;;4.30;;
20042;SDS011;10182;52.896;6.496;2022-08-07T19:57:53;5.07;;;4.53;;
20042;SDS011;10182;52.896;6.496;2022-08-07T20:02:59;6.33;;;3.53;;
20042;SDS011;10182;52.896;6.496;2022-08-07T20:08:06;7.70;;;4.20;;
20042;SDS011;10182;52.896;6.496;2022-08-07T20:13:15;9.00;;;3.93;;
20042;SDS011;10182;52.896;6.496;2022-08-07T20:18:19;3.70;;;3.30;;
20042;SDS011;10182;52.896;6.496;2022-08-07T20:23:23;4.23;;;3.70;;
20042;SDS011;10182;52.896;6.496;2022-08-07T20:28:27;4.57;;;3.80;;
20042;SDS011;10182;52.896;6.496;2022-08-07T20:33:31;6.30;;;3.30;;
20042;SDS011;10182;52.896;6.496;2022-08-07T20:38:35;5.33;;;4.30;;
20042;SDS011;10182;52.896;6.496;2022-08-07T20:43:38;6.47;;;4.63;;
20042;SDS011;10182;52.896;6.496;2022-08-07T20:48:41;10.17;;;3.70;;
20042;SDS011;10182;52.896;6.496;2022-08-07T20:53:45;6.77;;;4.40;;
20042;SDS011;10182;52.896;6.496;2022-08-07T20:58:48;7.83;;;5.13;;
20042;SDS011;10182;52.896;6.496;2022-08-07T21:03:51;6.83;;;4.73;;
20042;SDS011;10182;52.896;6.496;2022-08-07T21:08:58;8.77;;;5.07;;
20042;SDS011;10182;52.896;6.496;2022-08-07T21:14:05;8.50;;;4.80;;
20042;SDS011;10182;52.896;6.496;2022-08-07T21:19:10;4.87;;;4.43;;
20042;SDS011;10182;52.896;6.496;2022-08-07T21:24:15;7.10;;;4.80;;
20042;SDS011;10182;52.896;6.496;2022-08-07T21:29:22;6.43;;;4.13;;
20042;SDS011;10182;52.896;6.496;2022-08-07T21:34:30;4.60;;;4.20;;
20042;SDS011;10182;52.896;6.496;2022-08-07T21:39:41;9.53;;;3.97;;
20042;SDS011;10182;52.896;6.496;2022-08-07T21:44:52;7.67;;;4.20;;
20042;SDS011;10182;52.896;6.496;2022-08-07T21:49:58;9.63;;;5.10;;
20042;SDS011;10182;52.896;6.496;2022-08-07T21:55:07;5.43;;;4.73;;
20042;SDS011;10182;52.896;6.496;2022-08-07T22:00:19;5.93;;;4.90;;
20042;SDS011;10182;52.896;6.496;2022-08-07T22:05:23;7.30;;;5.20;;
20042;SDS011;10182;52.896;6.496;2022-08-07T22:10:29;11.73;;;5.63;;
20042;SDS011;10182;52.896;6.496;2022-08-07T22:15:35;7.33;;;5.17;;
20042;SDS011;10182;52.896;6.496;2022-08-07T22:20:43;6.70;;;4.97;;
20042;SDS011;10182;52.896;6.496;2022-08-07T22:25:56;9.43;;;6.00;;
20042;SDS011;10182;52.896;6.496;2022-08-07T22:31:04;5.73;;;5.23;;
20042;SDS011;10182;52.896;6.496;2022-08-07T22:36:16;6.90;;;5.67;;
20042;SDS011;10182;52.896;6.496;2022-08-07T22:41:28;9.27;;;5.57;;
20042;SDS011;10182;52.896;6.496;2022-08-07T22:46:54;6.97;;;5.70;;
20042;SDS011;10182;52.896;6.496;2022-08-07T22:52:12;8.90;;;5.53;;
20042;SDS011;10182;52.896;6.496;2022-08-07T23:03:21;5.27;;;4.63;;
20042;SDS011;10182;52.896;6.496;2022-08-07T23:08:45;4.50;;;4.10;;
20042;SDS011;10182;52.896;6.496;2022-08-07T23:13:59;8.67;;;5.23;;
20042;SDS011;10182;52.896;6.496;2022-08-07T23:19:12;7.87;;;4.60;;
20042;SDS011;10182;52.896;6.496;2022-08-07T23:24:45;6.73;;;4.53;;
20042;SDS011;10182;52.896;6.496;2022-08-07T23:30:00;5.43;;;4.27;;
20042;SDS011;10182;52.896;6.496;2022-08-07T23:35:09;8.60;;;4.60;;
20042;SDS011;10182;52.896;6.496;2022-08-07T23:40:21;5.87;;;4.67;;
20042;SDS011;10182;52.896;6.496;2022-08-07T23:45:36;4.40;;;4.00;;
20042;SDS011;10182;52.896;6.496;2022-08-07T23:50:44;5.47;;;4.20;;
20042;SDS011;10182;52.896;6.496;2022-08-07T23:55:50;5.70;;;4.43;;
